sensor_id;sensor_type;location;lat;lon;timestamp;noise_LAeq;noise_LA_min;noise_LA_max;noise_LA01;noise_LA95
64077;Laerm;51039;49.696;10.808;2022-12-18T00:01:25;39.38;38.24;40.87;;
64077;Laerm;51039;49.696;10.808;2022-12-18T00:03:52;39.37;38.11;40.52;;
64077;Laerm;51039;49.696;10.808;2022-12-18T00:06:19;39.37;38.20;40.53;;
64077;Laerm;51039;49.696;10.808;2022-12-18T00:08:45;39.36;38.01;40.41;;
64077;Laerm;51039;49.696;10.808;2022-12-18T00:11:13;39.37;38.21;40.60;;
64077;Laerm;51039;49.696;10.808;2022-12-18T00:13:38;39.38;38.03;40.52;;
64077;Laerm;51039;49.696;10.808;2022-12-18T00:16:06;39.42;38.23;40.50;;
64077;Laerm;51039;49.696;10.808;2022-12-18T00:18:32;39.45;38.11;40.43;;
64077;Laerm;51039;49.696;10.808;2022-12-18T00:20:59;39.47;38.01;40.60;;
64077;Laerm;51039;49.696;10.808;2022-12-18T00:23:25;39.49;38.10;40.64;;
64077;Laerm;51039;49.696;10.808;2022-12-18T00:25:50;39.50;37.98;40.69;;
64077;Laerm;51039;49.696;10.808;2022-12-18T00:28:15;39.50;38.26;40.55;;
64077;Laerm;51039;49.696;10.808;2022-12-18T00:30:41;39.52;38.22;40.77;;
64077;Laerm;51039;49.696;10.808;2022-12-18T00:33:06;39.51;38.25;40.86;;
64077;Laerm;51039;49.696;10.808;2022-12-18T00:35:32;39.49;38.07;40.75;;
64077;Laerm;51039;49.696;10.808;2022-12-18T00:37:57;39.47;38.25;40.64;;
64077;Laerm;51039;49.696;10.808;2022-12-18T00:40:22;39.48;37.89;40.66;;
64077;Laerm;51039;49.696;10.808;2022-12-18T00:42:48;39.52;38.21;40.64;;
64077;Laerm;51039;49.696;10.808;2022-12-18T00:45:30;39.54;38.11;40.76;;
64077;Laerm;51039;49.696;10.808;2022-12-18T00:47:56;39.52;38.13;40.84;;
64077;Laerm;51039;49.696;10.808;2022-12-18T00:50:23;39.53;38.22;40.62;;
64077;Laerm;51039;49.696;10.808;2022-12-18T00:52:49;39.52;38.37;40.78;;
64077;Laerm;51039;49.696;10.808;2022-12-18T00:55:14;39.51;38.09;40.76;;
64077;Laerm;51039;49.696;10.808;2022-12-18T00:57:40;39.53;38.37;40.70;;
64077;Laerm;51039;49.696;10.808;2022-12-18T01:00:08;39.53;38.24;40.81;;
64077;Laerm;51039;49.696;10.808;2022-12-18T01:02:34;39.53;38.04;40.97;;
64077;Laerm;51039;49.696;10.808;2022-12-18T01:04:59;39.54;38.25;40.77;;
64077;Laerm;51039;49.696;10.808;2022-12-18T01:07:25;39.55;37.98;40.84;;
64077;Laerm;51039;49.696;10.808;2022-12-18T01:09:50;39.57;38.27;40.72;;
64077;Laerm;51039;49.696;10.808;2022-12-18T01:12:15;39.56;38.34;40.91;;
64077;Laerm;51039;49.696;10.808;2022-12-18T01:14:41;39.55;38.16;41.02;;
64077;Laerm;51039;49.696;10.808;2022-12-18T01:17:06;39.52;38.12;40.67;;
64077;Laerm;51039;49.696;10.808;2022-12-18T01:19:32;39.49;38.04;40.72;;
64077;Laerm;51039;49.696;10.808;2022-12-18T01:21:58;39.47;38.10;40.66;;
64077;Laerm;51039;49.696;10.808;2022-12-18T01:24:23;39.41;38.18;40.59;;
64077;Laerm;51039;49.696;10.808;2022-12-18T01:26:49;39.30;37.86;40.49;;
64077;Laerm;51039;49.696;10.808;2022-12-18T01:29:14;39.11;37.73;40.31;;
64077;Laerm;51039;49.696;10.808;2022-12-18T01:31:39;38.95;37.80;40.04;;
64077;Laerm;51039;49.696;10.808;2022-12-18T01:34:05;38.81;37.43;40.02;;
64077;Laerm;51039;49.696;10.808;2022-12-18T01:36:33;38.75;37.48;40.03;;
64077;Laerm;51039;49.696;10.808;2022-12-18T01:39:00;38.78;37.57;39.99;;
64077;Laerm;51039;49.696;10.808;2022-12-18T01:41:28;38.84;37.42;39.96;;
64077;Laerm;51039;49.696;10.808;2022-12-18T01:47:43;39.00;37.69;40.19;;
64077;Laerm;51039;49.696;10.808;2022-12-18T01:50:16;39.14;37.93;40.35;;
64077;Laerm;51039;49.696;10.808;2022-12-18T01:52:45;39.28;37.90;40.51;;
64077;Laerm;51039;49.696;10.808;2022-12-18T01:55:12;39.39;38.15;40.56;;
64077;Laerm;51039;49.696;10.808;2022-12-18T01:57:40;39.49;38.15;40.81;;
64077;Laerm;51039;49.696;10.808;2022-12-18T02:00:18;39.55;38.06;40.66;;
64077;Laerm;51039;49.696;10.808;2022-12-18T02:02:45;39.59;38.30;40.79;;
64077;Laerm;51039;49.696;10.808;2022-12-18T02:05:13;39.62;38.36;40.73;;
64077;Laerm;51039;49.696;10.808;2022-12-18T02:16:12;39.74;38.46;40.99;;
64077;Laerm;51039;49.696;10.808;2022-12-18T02:18:45;39.76;38.30;40.90;;
64077;Laerm;51039;49.696;10.808;2022-12-18T02:21:21;39.77;38.48;41.05;;
64077;Laerm;51039;49.696;10.808;2022-12-18T02:26:36;39.80;38.33;41.14;;
64077;Laerm;51039;49.696;10.808;2022-12-18T02:29:22;39.79;38.47;40.97;;
64077;Laerm;51039;49.696;10.808;2022-12-18T02:31:55;39.79;38.53;41.05;;
64077;Laerm;51039;49.696;10.808;2022-12-18T02:34:27;39.74;38.20;41.00;;
64077;Laerm;51039;49.696;10.808;2022-12-18T02:36:54;39.73;38.34;40.96;;
64077;Laerm;51039;49.696;10.808;2022-12-18T02:39:21;39.71;38.49;41.09;;
64077;Laerm;51039;49.696;10.808;2022-12-18T02:41:48;39.72;38.42;40.93;;
64077;Laerm;51039;49.696;10.808;2022-12-18T02:44:14;39.73;38.43;40.93;;
64077;Laerm;51039;49.696;10.808;2022-12-18T02:46:42;39.75;38.34;40.84;;
64077;Laerm;51039;49.696;10.808;2022-12-18T02:49:36;39.76;38.67;40.90;;
64077;Laerm;51039;49.696;10.808;2022-12-18T03:00:19;39.70;38.42;40.91;;
64077;Laerm;51039;49.696;10.808;2022-12-18T03:02:50;39.62;38.37;40.76;;
64077;Laerm;51039;49.696;10.808;2022-12-18T03:05:21;39.55;37.95;40.63;;
64077;Laerm;51039;49.696;10.808;2022-12-18T03:07:57;39.50;38.20;40.58;;
64077;Laerm;51039;49.696;10.808;2022-12-18T03:10:28;39.49;38.32;40.61;;
64077;Laerm;51039;49.696;10.808;2022-12-18T03:13:17;39.50;38.19;40.83;;
64077;Laerm;51039;49.696;10.808;2022-12-18T03:15:49;39.49;38.10;40.57;;
64077;Laerm;51039;49.696;10.808;2022-12-18T03:19:07;39.49;38.29;40.75;;
64077;Laerm;51039;49.696;10.808;2022-12-18T03:21:06;39.48;38.01;40.66;;
64077;Laerm;51039;49.696;10.808;2022-12-18T03:23:36;39.49;38.34;40.63;;
64077;Laerm;51039;49.696;10.808;2022-12-18T03:26:07;39.51;38.10;40.71;;
64077;Laerm;51039;49.696;10.808;2022-12-18T03:28:38;39.52;38.10;40.73;;
64077;Laerm;51039;49.696;10.808;2022-12-18T03:31:05;39.54;38.33;40.80;;
64077;Laerm;51039;49.696;10.808;2022-12-18T03:33:40;39.56;38.32;40.68;;
64077;Laerm;51039;49.696;10.808;2022-12-18T03:36:07;39.59;38.38;40.90;;
64077;Laerm;51039;49.696;10.808;2022-12-18T03:38:33;39.61;38.40;40.76;;
64077;Laerm;51039;49.696;10.808;2022-12-18T03:46:30;39.70;38.39;40.94;;
64077;Laerm;51039;49.696;10.808;2022-12-18T03:49:09;39.74;38.44;40.83;;
64077;Laerm;51039;49.696;10.808;2022-12-18T03:51:42;39.77;38.14;41.01;;
64077;Laerm;51039;49.696;10.808;2022-12-18T03:54:11;39.79;38.19;41.01;;
64077;Laerm;51039;49.696;10.808;2022-12-18T03:56:42;39.80;38.07;41.03;;
64077;Laerm;51039;49.696;10.808;2022-12-18T03:59:09;39.80;38.68;41.22;;
64077;Laerm;51039;49.696;10.808;2022-12-18T04:01:40;39.81;38.44;41.10;;
64077;Laerm;51039;49.696;10.808;2022-12-18T04:04:08;39.80;38.28;41.02;;
64077;Laerm;51039;49.696;10.808;2022-12-18T04:06:36;39.80;38.40;40.99;;
64077;Laerm;51039;49.696;10.808;2022-12-18T04:09:02;39.79;38.47;41.16;;
64077;Laerm;51039;49.696;10.808;2022-12-18T04:11:28;39.80;38.48;40.98;;
64077;Laerm;51039;49.696;10.808;2022-12-18T04:13:57;39.80;38.44;41.03;;
64077;Laerm;51039;49.696;10.808;2022-12-18T04:16:26;39.80;38.53;41.02;;
64077;Laerm;51039;49.696;10.808;2022-12-18T04:18:52;39.79;38.33;40.90;;
64077;Laerm;51039;49.696;10.808;2022-12-18T04:21:18;39.79;38.39;40.88;;
64077;Laerm;51039;49.696;10.808;2022-12-18T04:23:43;39.77;38.61;40.98;;
64077;Laerm;51039;49.696;10.808;2022-12-18T04:26:08;39.74;38.37;40.91;;
64077;Laerm;51039;49.696;10.808;2022-12-18T04:28:34;39.73;38.57;41.02;;
64077;Laerm;51039;49.696;10.808;2022-12-18T04:30:59;39.71;38.53;40.89;;
64077;Laerm;51039;49.696;10.808;2022-12-18T04:33:24;39.68;38.40;40.74;;
64077;Laerm;51039;49.696;10.808;2022-12-18T04:35:50;39.66;38.17;40.84;;
64077;Laerm;51039;49.696;10.808;2022-12-18T04:38:15;39.62;38.30;41.08;;
64077;Laerm;51039;49.696;10.808;2022-12-18T04:40:40;39.58;38.25;40.65;;
64077;Laerm;51039;49.696;10.808;2022-12-18T04:43:06;39.55;38.37;40.76;;
64077;Laerm;51039;49.696;10.808;2022-12-18T04:45:31;39.52;38.25;40.82;;
64077;Laerm;51039;49.696;10.808;2022-12-18T04:47:58;39.51;38.26;40.77;;
64077;Laerm;51039;49.696;10.808;2022-12-18T04:50:23;39.48;38.35;40.55;;
64077;Laerm;51039;49.696;10.808;2022-12-18T04:52:49;39.44;38.10;40.61;;
64077;Laerm;51039;49.696;10.808;2022-12-18T04:55:14;39.42;38.04;40.78;;
64077;Laerm;51039;49.696;10.808;2022-12-18T04:57:40;39.37;38.20;40.57;;
64077;Laerm;51039;49.696;10.808;2022-12-18T05:00:05;39.33;37.98;40.72;;
64077;Laerm;51039;49.696;10.808;2022-12-18T05:02:31;39.31;37.92;40.56;;
64077;Laerm;51039;49.696;10.808;2022-12-18T05:04:57;39.27;38.08;40.45;;
64077;Laerm;51039;49.696;10.808;2022-12-18T05:07:22;39.27;37.92;40.40;;
64077;Laerm;51039;49.696;10.808;2022-12-18T05:09:47;39.26;37.81;40.32;;
64077;Laerm;51039;49.696;10.808;2022-12-18T05:12:13;39.26;38.07;40.36;;
64077;Laerm;51039;49.696;10.808;2022-12-18T05:14:38;39.26;38.08;40.35;;
64077;Laerm;51039;49.696;10.808;2022-12-18T05:17:04;39.25;38.05;40.38;;
64077;Laerm;51039;49.696;10.808;2022-12-18T05:19:30;39.25;38.04;40.40;;
64077;Laerm;51039;49.696;10.808;2022-12-18T05:21:55;39.25;37.78;40.29;;
64077;Laerm;51039;49.696;10.808;2022-12-18T05:24:21;39.27;37.91;40.46;;
64077;Laerm;51039;49.696;10.808;2022-12-18T05:26:46;39.25;38.05;40.39;;
64077;Laerm;51039;49.696;10.808;2022-12-18T05:29:11;39.25;37.73;40.30;;
64077;Laerm;51039;49.696;10.808;2022-12-18T05:31:38;39.26;38.05;40.58;;
64077;Laerm;51039;49.696;10.808;2022-12-18T05:34:03;39.26;38.10;40.48;;
64077;Laerm;51039;49.696;10.808;2022-12-18T05:36:29;39.25;37.77;40.66;;
64077;Laerm;51039;49.696;10.808;2022-12-18T05:38:54;39.24;38.02;40.42;;
64077;Laerm;51039;49.696;10.808;2022-12-18T05:41:19;39.24;38.05;40.43;;
64077;Laerm;51039;49.696;10.808;2022-12-18T05:43:45;39.23;37.99;40.51;;
64077;Laerm;51039;49.696;10.808;2022-12-18T05:46:13;39.22;38.06;40.48;;
64077;Laerm;51039;49.696;10.808;2022-12-18T05:48:39;39.21;38.03;40.45;;
64077;Laerm;51039;49.696;10.808;2022-12-18T05:51:23;39.22;37.85;40.50;;
64077;Laerm;51039;49.696;10.808;2022-12-18T05:53:49;39.21;37.89;40.28;;
64077;Laerm;51039;49.696;10.808;2022-12-18T05:56:17;39.20;38.01;40.48;;
64077;Laerm;51039;49.696;10.808;2022-12-18T05:58:43;39.22;38.03;40.45;;
64077;Laerm;51039;49.696;10.808;2022-12-18T06:01:11;39.23;37.99;40.54;;
64077;Laerm;51039;49.696;10.808;2022-12-18T06:03:37;39.26;38.00;40.43;;
64077;Laerm;51039;49.696;10.808;2022-12-18T06:06:02;39.31;37.97;40.75;;
64077;Laerm;51039;49.696;10.808;2022-12-18T06:08:28;39.34;37.95;40.60;;
64077;Laerm;51039;49.696;10.808;2022-12-18T06:10:53;39.35;38.19;40.69;;
64077;Laerm;51039;49.696;10.808;2022-12-18T06:13:19;39.38;38.19;40.63;;
64077;Laerm;51039;49.696;10.808;2022-12-18T06:15:45;39.40;38.23;40.50;;
64077;Laerm;51039;49.696;10.808;2022-12-18T06:18:10;39.40;38.30;40.81;;
64077;Laerm;51039;49.696;10.808;2022-12-18T06:20:36;39.41;38.22;40.61;;
64077;Laerm;51039;49.696;10.808;2022-12-18T06:23:02;39.41;38.25;40.65;;
64077;Laerm;51039;49.696;10.808;2022-12-18T06:25:28;39.43;38.09;40.56;;
64077;Laerm;51039;49.696;10.808;2022-12-18T06:27:53;39.43;38.22;40.44;;
64077;Laerm;51039;49.696;10.808;2022-12-18T06:30:19;39.43;37.94;40.58;;
64077;Laerm;51039;49.696;10.808;2022-12-18T06:32:44;39.41;38.22;40.66;;
64077;Laerm;51039;49.696;10.808;2022-12-18T06:35:10;39.42;38.19;40.59;;
64077;Laerm;51039;49.696;10.808;2022-12-18T06:37:35;39.40;38.29;40.68;;
64077;Laerm;51039;49.696;10.808;2022-12-18T06:40:00;39.41;38.28;40.63;;
64077;Laerm;51039;49.696;10.808;2022-12-18T06:42:26;39.41;38.05;40.58;;
64077;Laerm;51039;49.696;10.808;2022-12-18T06:44:51;39.40;38.14;40.52;;
64077;Laerm;51039;49.696;10.808;2022-12-18T06:47:17;39.42;38.13;40.68;;
64077;Laerm;51039;49.696;10.808;2022-12-18T06:49:43;39.42;38.13;40.80;;
64077;Laerm;51039;49.696;10.808;2022-12-18T06:52:08;39.45;38.22;40.70;;
64077;Laerm;51039;49.696;10.808;2022-12-18T06:54:33;39.45;38.19;40.66;;
64077;Laerm;51039;49.696;10.808;2022-12-18T06:56:59;39.44;38.10;40.70;;
64077;Laerm;51039;49.696;10.808;2022-12-18T06:59:24;39.44;38.15;40.77;;
64077;Laerm;51039;49.696;10.808;2022-12-18T07:01:49;39.45;38.01;40.65;;
64077;Laerm;51039;49.696;10.808;2022-12-18T07:04:14;39.45;38.17;40.71;;
64077;Laerm;51039;49.696;10.808;2022-12-18T07:06:40;39.44;38.15;40.66;;
64077;Laerm;51039;49.696;10.808;2022-12-18T07:09:05;39.43;38.38;40.56;;
64077;Laerm;51039;49.696;10.808;2022-12-18T07:11:32;39.44;38.19;40.53;;
64077;Laerm;51039;49.696;10.808;2022-12-18T07:13:58;39.44;38.16;40.63;;
64077;Laerm;51039;49.696;10.808;2022-12-18T07:16:23;39.44;38.24;40.47;;
64077;Laerm;51039;49.696;10.808;2022-12-18T07:18:50;39.44;38.06;40.62;;
64077;Laerm;51039;49.696;10.808;2022-12-18T07:21:19;39.41;38.00;40.66;;
64077;Laerm;51039;49.696;10.808;2022-12-18T07:23:45;39.40;38.15;40.61;;
64077;Laerm;51039;49.696;10.808;2022-12-18T07:26:14;39.39;38.07;40.47;;
64077;Laerm;51039;49.696;10.808;2022-12-18T07:28:41;39.38;38.09;40.55;;
64077;Laerm;51039;49.696;10.808;2022-12-18T07:31:12;39.37;38.10;40.60;;
64077;Laerm;51039;49.696;10.808;2022-12-18T07:33:38;39.37;38.06;40.56;;
64077;Laerm;51039;49.696;10.808;2022-12-18T07:36:05;39.37;38.21;40.46;;
64077;Laerm;51039;49.696;10.808;2022-12-18T07:38:31;39.35;37.94;40.59;;
64077;Laerm;51039;49.696;10.808;2022-12-18T07:41:08;39.31;37.97;40.48;;
64077;Laerm;51039;49.696;10.808;2022-12-18T07:43:35;39.31;37.79;40.53;;
64077;Laerm;51039;49.696;10.808;2022-12-18T07:46:01;39.26;37.93;40.52;;
64077;Laerm;51039;49.696;10.808;2022-12-18T07:48:28;39.22;38.04;40.27;;
64077;Laerm;51039;49.696;10.808;2022-12-18T07:50:53;39.24;37.93;40.36;;
64077;Laerm;51039;49.696;10.808;2022-12-18T07:53:19;39.29;37.82;40.47;;
64077;Laerm;51039;49.696;10.808;2022-12-18T07:55:44;39.39;38.04;40.50;;
64077;Laerm;51039;49.696;10.808;2022-12-18T07:58:09;39.49;38.19;40.68;;
64077;Laerm;51039;49.696;10.808;2022-12-18T08:00:35;39.55;38.23;40.71;;
64077;Laerm;51039;49.696;10.808;2022-12-18T08:03:01;39.61;38.38;40.70;;
64077;Laerm;51039;49.696;10.808;2022-12-18T08:05:27;39.66;38.03;40.78;;
64077;Laerm;51039;49.696;10.808;2022-12-18T08:07:53;39.70;38.60;40.86;;
64077;Laerm;51039;49.696;10.808;2022-12-18T08:10:19;39.75;38.62;41.04;;
64077;Laerm;51039;49.696;10.808;2022-12-18T08:12:44;39.76;38.39;41.10;;
64077;Laerm;51039;49.696;10.808;2022-12-18T08:15:10;39.79;38.47;40.91;;
64077;Laerm;51039;49.696;10.808;2022-12-18T08:17:36;39.82;38.52;40.87;;
64077;Laerm;51039;49.696;10.808;2022-12-18T08:20:02;39.83;38.45;40.91;;
64077;Laerm;51039;49.696;10.808;2022-12-18T08:22:27;39.85;38.45;41.03;;
64077;Laerm;51039;49.696;10.808;2022-12-18T08:24:52;39.85;38.46;41.28;;
64077;Laerm;51039;49.696;10.808;2022-12-18T08:27:18;39.86;38.68;41.03;;
64077;Laerm;51039;49.696;10.808;2022-12-18T08:29:43;39.87;38.66;40.99;;
64077;Laerm;51039;49.696;10.808;2022-12-18T08:32:09;39.88;38.53;40.97;;
64077;Laerm;51039;49.696;10.808;2022-12-18T08:34:35;39.87;38.48;41.01;;
64077;Laerm;51039;49.696;10.808;2022-12-18T08:37:00;39.88;38.48;41.11;;
64077;Laerm;51039;49.696;10.808;2022-12-18T08:39:25;39.91;38.68;41.19;;
64077;Laerm;51039;49.696;10.808;2022-12-18T08:41:51;39.93;38.74;41.10;;
64077;Laerm;51039;49.696;10.808;2022-12-18T08:44:35;39.92;38.61;41.14;;
64077;Laerm;51039;49.696;10.808;2022-12-18T08:47:04;39.93;38.85;41.23;;
64077;Laerm;51039;49.696;10.808;2022-12-18T08:49:29;39.95;38.61;41.22;;
64077;Laerm;51039;49.696;10.808;2022-12-18T08:51:55;39.95;38.67;41.29;;
64077;Laerm;51039;49.696;10.808;2022-12-18T08:54:22;39.95;38.84;41.06;;
64077;Laerm;51039;49.696;10.808;2022-12-18T08:56:47;39.96;38.72;41.10;;
64077;Laerm;51039;49.696;10.808;2022-12-18T08:59:15;39.96;38.71;41.18;;
64077;Laerm;51039;49.696;10.808;2022-12-18T09:01:40;39.98;38.71;41.20;;
64077;Laerm;51039;49.696;10.808;2022-12-18T09:04:05;39.98;38.81;41.14;;
64077;Laerm;51039;49.696;10.808;2022-12-18T09:06:31;39.99;38.77;41.12;;
64077;Laerm;51039;49.696;10.808;2022-12-18T09:08:57;40.00;38.71;41.22;;
64077;Laerm;51039;49.696;10.808;2022-12-18T09:11:27;40.00;38.47;41.41;;
64077;Laerm;51039;49.696;10.808;2022-12-18T09:13:53;40.02;38.40;41.23;;
64077;Laerm;51039;49.696;10.808;2022-12-18T09:16:19;40.03;38.62;41.29;;
64077;Laerm;51039;49.696;10.808;2022-12-18T09:18:46;40.03;38.38;41.26;;
64077;Laerm;51039;49.696;10.808;2022-12-18T09:21:19;40.05;38.74;41.26;;
64077;Laerm;51039;49.696;10.808;2022-12-18T09:23:52;40.06;38.76;41.15;;
64077;Laerm;51039;49.696;10.808;2022-12-18T09:26:17;40.06;38.82;41.49;;
64077;Laerm;51039;49.696;10.808;2022-12-18T09:28:42;40.05;38.78;41.25;;
64077;Laerm;51039;49.696;10.808;2022-12-18T09:31:09;40.05;38.88;41.12;;
64077;Laerm;51039;49.696;10.808;2022-12-18T09:33:35;40.04;38.67;41.27;;
64077;Laerm;51039;49.696;10.808;2022-12-18T09:36:05;40.04;38.74;41.21;;
64077;Laerm;51039;49.696;10.808;2022-12-18T09:38:31;40.05;38.37;41.25;;
64077;Laerm;51039;49.696;10.808;2022-12-18T09:43:47;40.06;38.76;41.24;;
64077;Laerm;51039;49.696;10.808;2022-12-18T09:46:33;40.07;38.76;41.23;;
64077;Laerm;51039;49.696;10.808;2022-12-18T09:49:03;40.08;38.84;41.27;;
64077;Laerm;51039;49.696;10.808;2022-12-18T09:51:39;40.08;38.88;41.16;;
64077;Laerm;51039;49.696;10.808;2022-12-18T09:54:12;40.10;38.87;41.29;;
64077;Laerm;51039;49.696;10.808;2022-12-18T09:56:41;40.08;38.76;41.22;;
64077;Laerm;51039;49.696;10.808;2022-12-18T09:59:18;40.09;38.73;41.28;;
64077;Laerm;51039;49.696;10.808;2022-12-18T10:01:44;40.09;38.80;41.37;;
64077;Laerm;51039;49.696;10.808;2022-12-18T10:04:10;40.11;38.57;41.30;;
64077;Laerm;51039;49.696;10.808;2022-12-18T10:06:39;40.11;38.56;41.42;;
64077;Laerm;51039;49.696;10.808;2022-12-18T10:09:17;40.12;38.95;41.38;;
64077;Laerm;51039;49.696;10.808;2022-12-18T10:17:00;40.12;38.75;41.49;;
64077;Laerm;51039;49.696;10.808;2022-12-18T10:19:48;40.11;38.63;41.61;;
64077;Laerm;51039;49.696;10.808;2022-12-18T10:22:24;40.07;38.76;41.44;;
64077;Laerm;51039;49.696;10.808;2022-12-18T10:27:54;40.01;38.70;41.55;;
64077;Laerm;51039;49.696;10.808;2022-12-18T10:30:23;39.96;38.55;41.07;;
64077;Laerm;51039;49.696;10.808;2022-12-18T10:32:49;39.94;38.58;41.24;;
64077;Laerm;51039;49.696;10.808;2022-12-18T10:35:23;39.94;38.69;41.16;;
64077;Laerm;51039;49.696;10.808;2022-12-18T10:43:27;39.80;38.41;42.01;;
64077;Laerm;51039;49.696;10.808;2022-12-18T10:48:37;39.84;38.54;41.03;;
64077;Laerm;51039;49.696;10.808;2022-12-18T10:51:05;39.86;38.55;41.10;;
64077;Laerm;51039;49.696;10.808;2022-12-18T10:53:33;39.83;38.41;41.15;;
64077;Laerm;51039;49.696;10.808;2022-12-18T10:55:59;39.81;38.36;41.06;;
64077;Laerm;51039;49.696;10.808;2022-12-18T10:58:28;39.72;38.29;40.89;;
64077;Laerm;51039;49.696;10.808;2022-12-18T11:01:07;39.68;38.05;40.91;;
64077;Laerm;51039;49.696;10.808;2022-12-18T11:03:40;39.68;38.33;41.08;;
64077;Laerm;51039;49.696;10.808;2022-12-18T11:06:16;39.62;38.27;40.86;;
64077;Laerm;51039;49.696;10.808;2022-12-18T11:08:44;39.51;38.06;40.93;;
64077;Laerm;51039;49.696;10.808;2022-12-18T11:11:23;39.42;37.88;40.95;;
64077;Laerm;51039;49.696;10.808;2022-12-18T11:14:13;39.37;38.17;40.89;;
64077;Laerm;51039;49.696;10.808;2022-12-18T11:16:45;39.28;37.94;40.42;;
64077;Laerm;51039;49.696;10.808;2022-12-18T11:19:37;39.17;37.47;40.58;;
64077;Laerm;51039;49.696;10.808;2022-12-18T11:22:25;39.17;37.69;40.66;;
64077;Laerm;51039;49.696;10.808;2022-12-18T11:27:20;39.15;37.59;40.53;;
64077;Laerm;51039;49.696;10.808;2022-12-18T11:29:45;39.00;37.72;40.34;;
64077;Laerm;51039;49.696;10.808;2022-12-18T11:35:01;38.68;37.33;39.98;;
64077;Laerm;51039;49.696;10.808;2022-12-18T11:37:27;38.56;37.05;39.92;;
64077;Laerm;51039;49.696;10.808;2022-12-18T11:40:01;38.48;37.16;39.76;;
64077;Laerm;51039;49.696;10.808;2022-12-18T11:42:45;38.35;36.77;39.67;;
64077;Laerm;51039;49.696;10.808;2022-12-18T11:50:18;38.32;36.87;39.67;;
64077;Laerm;51039;49.696;10.808;2022-12-18T11:52:44;38.44;36.87;39.77;;
64077;Laerm;51039;49.696;10.808;2022-12-18T11:58:47;38.57;37.22;40.01;;
64077;Laerm;51039;49.696;10.808;2022-12-18T12:12:35;38.71;37.32;40.19;;
64077;Laerm;51039;49.696;10.808;2022-12-18T12:15:37;38.72;37.23;40.25;;
64077;Laerm;51039;49.696;10.808;2022-12-18T12:23:57;38.64;37.09;40.02;;
64077;Laerm;51039;49.696;10.808;2022-12-18T12:26:32;38.66;37.20;40.07;;
64077;Laerm;51039;49.696;10.808;2022-12-18T12:39:47;38.52;37.18;39.91;;
64077;Laerm;51039;49.696;10.808;2022-12-18T12:45:22;38.36;36.97;39.79;;
64077;Laerm;51039;49.696;10.808;2022-12-18T12:47:52;38.38;36.79;39.59;;
64077;Laerm;51039;49.696;10.808;2022-12-18T12:50:20;38.37;36.91;39.55;;
64077;Laerm;51039;49.696;10.808;2022-12-18T12:52:51;38.36;36.53;39.65;;
64077;Laerm;51039;49.696;10.808;2022-12-18T12:55:20;38.31;36.73;39.58;;
64077;Laerm;51039;49.696;10.808;2022-12-18T12:58:10;38.30;36.79;39.58;;
64077;Laerm;51039;49.696;10.808;2022-12-18T13:04:12;38.21;36.82;39.39;;
64077;Laerm;51039;49.696;10.808;2022-12-18T13:07:20;38.19;36.67;39.51;;
64077;Laerm;51039;49.696;10.808;2022-12-18T13:09:18;38.18;36.57;39.53;;
64077;Laerm;51039;49.696;10.808;2022-12-18T13:11:47;38.20;36.81;39.51;;
64077;Laerm;51039;49.696;10.808;2022-12-18T13:14:37;38.21;36.52;40.25;;
64077;Laerm;51039;49.696;10.808;2022-12-18T13:19:51;38.24;36.52;39.67;;
64077;Laerm;51039;49.696;10.808;2022-12-18T13:22:33;38.21;36.70;39.48;;
64077;Laerm;51039;49.696;10.808;2022-12-18T13:24:59;38.25;36.86;39.78;;
64077;Laerm;51039;49.696;10.808;2022-12-18T13:30:42;38.30;36.81;39.67;;
64077;Laerm;51039;49.696;10.808;2022-12-18T13:41:03;38.40;37.01;39.83;;
64077;Laerm;51039;49.696;10.808;2022-12-18T13:43:42;38.44;36.70;39.74;;
64077;Laerm;51039;49.696;10.808;2022-12-18T13:51:43;38.47;37.15;39.82;;
64077;Laerm;51039;49.696;10.808;2022-12-18T13:54:36;38.51;37.03;39.94;;
64077;Laerm;51039;49.696;10.808;2022-12-18T13:57:03;38.55;37.12;39.87;;
64077;Laerm;51039;49.696;10.808;2022-12-18T13:59:38;38.59;36.76;43.00;;
64077;Laerm;51039;49.696;10.808;2022-12-18T14:02:14;38.59;37.20;39.82;;
64077;Laerm;51039;49.696;10.808;2022-12-18T14:04:40;38.64;36.96;39.85;;
64077;Laerm;51039;49.696;10.808;2022-12-18T14:07:10;38.68;37.30;40.04;;
64077;Laerm;51039;49.696;10.808;2022-12-18T14:09:43;38.69;37.16;40.16;;
64077;Laerm;51039;49.696;10.808;2022-12-18T14:12:21;38.74;37.35;40.23;;
64077;Laerm;51039;49.696;10.808;2022-12-18T14:18:00;38.85;37.45;40.19;;
64077;Laerm;51039;49.696;10.808;2022-12-18T14:20:29;38.87;37.36;40.27;;
64077;Laerm;51039;49.696;10.808;2022-12-18T14:22:55;38.91;37.66;40.34;;
64077;Laerm;51039;49.696;10.808;2022-12-18T14:25:24;38.95;37.58;40.15;;
64077;Laerm;51039;49.696;10.808;2022-12-18T14:27:50;38.96;37.52;40.24;;
64077;Laerm;51039;49.696;10.808;2022-12-18T14:30:28;39.00;37.18;40.35;;
64077;Laerm;51039;49.696;10.808;2022-12-18T14:33:18;39.02;37.50;40.34;;
64077;Laerm;51039;49.696;10.808;2022-12-18T14:36:04;39.05;37.67;40.39;;
64077;Laerm;51039;49.696;10.808;2022-12-18T14:38:31;39.11;37.51;40.44;;
64077;Laerm;51039;49.696;10.808;2022-12-18T14:41:02;39.15;37.60;40.29;;
64077;Laerm;51039;49.696;10.808;2022-12-18T14:43:31;39.20;37.86;40.47;;
64077;Laerm;51039;49.696;10.808;2022-12-18T14:45:57;39.26;37.71;40.64;;
64077;Laerm;51039;49.696;10.808;2022-12-18T14:48:49;39.32;38.00;40.63;;
64077;Laerm;51039;49.696;10.808;2022-12-18T14:51:19;39.38;37.90;40.60;;
64077;Laerm;51039;49.696;10.808;2022-12-18T14:53:48;39.46;38.14;40.64;;
64077;Laerm;51039;49.696;10.808;2022-12-18T14:56:21;39.54;37.98;40.83;;
64077;Laerm;51039;49.696;10.808;2022-12-18T14:58:58;39.58;38.25;40.85;;
64077;Laerm;51039;49.696;10.808;2022-12-18T15:01:34;39.63;38.26;40.89;;
64077;Laerm;51039;49.696;10.808;2022-12-18T15:04:03;39.68;38.19;41.15;;
64077;Laerm;51039;49.696;10.808;2022-12-18T15:06:32;39.73;38.49;40.96;;
64077;Laerm;51039;49.696;10.808;2022-12-18T15:09:00;39.76;38.27;40.98;;
64077;Laerm;51039;49.696;10.808;2022-12-18T15:11:44;39.83;38.52;40.97;;
64077;Laerm;51039;49.696;10.808;2022-12-18T15:14:31;39.86;38.39;41.21;;
64077;Laerm;51039;49.696;10.808;2022-12-18T15:16:58;39.89;38.24;41.31;;
64077;Laerm;51039;49.696;10.808;2022-12-18T15:19:37;39.92;38.37;41.40;;
64077;Laerm;51039;49.696;10.808;2022-12-18T15:22:03;39.92;38.22;41.43;;
64077;Laerm;51039;49.696;10.808;2022-12-18T15:24:31;39.94;38.65;41.11;;
64077;Laerm;51039;49.696;10.808;2022-12-18T15:26:58;39.93;38.25;41.16;;
64077;Laerm;51039;49.696;10.808;2022-12-18T15:29:24;39.95;38.36;41.22;;
64077;Laerm;51039;49.696;10.808;2022-12-18T15:34:25;39.96;38.55;41.10;;
64077;Laerm;51039;49.696;10.808;2022-12-18T15:36:51;39.97;38.65;41.26;;
64077;Laerm;51039;49.696;10.808;2022-12-18T15:39:17;39.99;38.54;41.35;;
64077;Laerm;51039;49.696;10.808;2022-12-18T15:41:42;40.00;38.65;41.23;;
64077;Laerm;51039;49.696;10.808;2022-12-18T15:44:28;40.03;38.42;41.57;;